Time;durP1;ratioP1;P1;durP2;ratioP2;P2;SDS_P1;SDS_P2;PMS_P1;PMS_P2;Temp;Humidity;BMP_temperature;BMP_pressure;BME280_temperature;BME280_humidity;BME280_pressure;Samples;Min_cycle;Max_cycle;Signal;HPM_P1;HPM_P2
2022/08/31 01:37:24;;;;;;;4.63;4.23;;;17.80;99.90;;;;;;6284056;22;20395;-93
2022/08/31 01:43:51;;;;;;;4.80;4.30;;;17.80;99.90;;;;;;6284380;22;20419;-94
2022/08/31 02:06:03;;;;;;;5.77;4.50;;;17.80;99.90;;;;;;6378508;22;20361;-94
2022/08/31 02:23:18;;;;;;;5.23;4.73;;;17.70;99.90;;;;;;6346951;22;20486;-92
2022/08/31 03:30:54;;;;;;;5.60;4.60;;;17.50;99.90;;;;;;6315177;22;20422;-93
2022/08/31 03:33:34;;;;;;;5.30;4.53;;;17.50;99.90;;;;;;6369697;22;20430;-93
2022/08/31 04:35:52;;;;;;;5.87;5.30;;;17.40;99.90;;;;;;6319152;22;20976;-94
2022/08/31 04:38:19;;;;;;;7.63;5.30;;;17.40;99.90;;;;;;6329989;22;20424;-93
2022/08/31 04:44:03;;;;;;;6.20;4.90;;;17.30;99.90;;;;;;6200920;23;21035;-92
2022/08/31 04:46:31;;;;;;;6.03;5.53;;;17.30;99.90;;;;;;6333973;22;20497;-93
2022/08/31 04:48:58;;;;;;;6.07;4.63;;;17.40;99.90;;;;;;6342924;22;20430;-93
2022/08/31 04:51:30;;;;;;;5.90;4.33;;;17.40;99.90;;;;;;6343038;22;20414;-94
2022/08/31 04:53:57;;;;;;;6.47;5.70;;;17.40;99.90;;;;;;6342575;22;20410;-94
2022/08/31 04:56:26;;;;;;;6.83;5.83;;;17.30;99.90;;;;;;6342994;22;20424;-93
2022/08/31 04:58:56;;;;;;;5.90;5.30;;;17.30;99.90;;;;;;6345506;22;20425;-94
2022/08/31 05:01:25;;;;;;;5.60;4.93;;;17.30;99.90;;;;;;6343051;22;20532;-93
2022/08/31 05:03:55;;;;;;;5.97;5.47;;;17.30;99.90;;;;;;6340458;22;20496;-92
2022/08/31 05:06:25;;;;;;;7.03;6.10;;;17.30;99.90;;;;;;6343640;22;20414;-93
2022/08/31 05:08:55;;;;;;;4.80;4.30;;;17.30;99.90;;;;;;6345042;22;20924;-93
2022/08/31 05:11:24;;;;;;;5.27;4.77;;;17.30;99.90;;;;;;6344599;22;20413;-94
2022/08/31 05:13:51;;;;;;;5.47;4.70;;;17.30;99.90;;;;;;6343464;22;20418;-93
2022/08/31 05:16:25;;;;;;;6.47;5.30;;;17.30;99.90;;;;;;6345222;22;20438;-93
2022/08/31 05:18:58;;;;;;;6.23;4.90;;;17.30;99.90;;;;;;6345110;22;20444;-94
2022/08/31 05:21:31;;;;;;;6.30;5.40;;;17.20;99.90;;;;;;6345547;22;20432;-94
2022/08/31 05:24:02;;;;;;;6.13;4.57;;;17.20;99.90;;;;;;6342619;22;20438;-93
2022/08/31 05:26:31;;;;;;;5.73;5.13;;;17.20;99.90;;;;;;6345312;22;20473;-94
2022/08/31 05:28:59;;;;;;;5.53;5.03;;;17.20;99.90;;;;;;6344410;22;20418;-94
2022/08/31 05:31:29;;;;;;;6.93;5.67;;;17.20;99.90;;;;;;6344837;22;20418;-94
2022/08/31 05:33:56;;;;;;;6.27;5.07;;;17.20;99.90;;;;;;6343997;22;20477;-93
2022/08/31 05:36:23;;;;;;;6.03;5.37;;;17.20;99.90;;;;;;6344040;22;20406;-94
2022/08/31 05:38:52;;;;;;;6.87;5.77;;;17.20;99.90;;;;;;6344005;22;20418;-94
2022/08/31 05:41:21;;;;;;;5.17;4.67;;;17.20;99.90;;;;;;6344217;22;20485;-92
2022/08/31 05:43:47;;;;;;;5.20;4.70;;;17.20;99.90;;;;;;6343540;22;20500;-95
2022/08/31 05:46:16;;;;;;;6.90;4.70;;;17.20;99.90;;;;;;6344865;22;20405;-94
2022/08/31 05:48:44;;;;;;;5.50;4.97;;;17.20;99.90;;;;;;6344481;22;20421;-93
2022/08/31 06:01:16;;;;;;;4.63;4.23;;;17.20;99.90;;;;;;6190248;22;20496;-95
2022/08/31 06:03:44;;;;;;;5.00;4.50;;;17.20;99.90;;;;;;6376856;22;20428;-95
2022/08/31 06:06:11;;;;;;;5.53;4.57;;;17.10;99.90;;;;;;6377076;22;20476;-95
2022/08/31 06:08:40;;;;;;;4.60;3.77;;;17.10;99.90;;;;;;6377352;22;20414;-95
2022/08/31 06:11:12;;;;;;;5.00;4.50;;;17.20;99.90;;;;;;6345414;22;20418;-94
2022/08/31 06:13:39;;;;;;;6.67;4.70;;;17.20;99.90;;;;;;6345188;22;20394;-94
2022/08/31 06:16:08;;;;;;;4.70;4.30;;;17.10;99.90;;;;;;6345667;22;20399;-94
2022/08/31 06:18:37;;;;;;;4.97;4.50;;;17.20;99.90;;;;;;6345489;22;20433;-94
2022/08/31 06:21:07;;;;;;;5.03;4.57;;;17.20;99.90;;;;;;6342419;22;20445;-94
2022/08/31 06:23:35;;;;;;;4.23;3.83;;;17.20;99.90;;;;;;6367582;22;20443;-92
2022/08/31 06:26:03;;;;;;;5.33;4.20;;;17.20;99.90;;;;;;6359528;22;20423;-93
2022/08/31 06:28:31;;;;;;;5.00;4.50;;;17.20;99.90;;;;;;6348591;22;20447;-93
2022/08/31 06:30:58;;;;;;;5.87;4.57;;;17.10;99.90;;;;;;6352240;22;20467;-93
2022/08/31 06:33:25;;;;;;;6.70;4.17;;;17.10;99.90;;;;;;6352397;22;20421;-92
2022/08/31 06:35:54;;;;;;;5.57;4.30;;;17.10;99.90;;;;;;6349086;22;20735;-93
2022/08/31 06:38:20;;;;;;;4.70;4.30;;;17.10;99.90;;;;;;6346799;22;20427;-92
2022/08/31 06:40:47;;;;;;;4.20;3.80;;;17.10;99.90;;;;;;6358435;22;20979;-93
2022/08/31 06:43:14;;;;;;;4.93;4.50;;;17.10;99.90;;;;;;6359969;22;20432;-93
2022/08/31 06:45:41;;;;;;;7.50;4.83;;;17.10;99.90;;;;;;6354051;22;20428;-94
2022/08/31 06:48:08;;;;;;;5.93;4.33;;;17.10;99.90;;;;;;6358270;22;20428;-93
2022/08/31 06:50:37;;;;;;;5.40;4.50;;;17.10;99.90;;;;;;6360667;22;20417;-93
2022/08/31 06:53:05;;;;;;;5.27;4.40;;;17.10;99.90;;;;;;6357391;22;20416;-93
2022/08/31 06:55:33;;;;;;;4.50;3.90;;;17.10;99.90;;;;;;6358781;22;20417;-93
2022/08/31 06:58:00;;;;;;;4.80;4.30;;;17.10;99.90;;;;;;6350906;22;20421;-92
2022/08/31 07:00:27;;;;;;;5.50;4.63;;;17.10;99.90;;;;;;6359778;22;20421;-93
2022/08/31 07:02:53;;;;;;;4.63;4.23;;;17.10;99.90;;;;;;6362123;22;20444;-93
2022/08/31 07:05:20;;;;;;;6.00;4.50;;;17.10;99.90;;;;;;6361525;22;20417;-93
2022/08/31 07:07:47;;;;;;;6.67;4.57;;;17.10;99.90;;;;;;6375675;22;20407;-94
2022/08/31 07:18:08;;;;;;;5.50;4.90;;;17.20;99.90;;;;;;6299001;22;20437;-93
2022/08/31 07:23:12;;;;;;;7.17;5.20;;;17.20;99.90;;;;;;6330816;22;20445;-95
2022/08/31 07:25:39;;;;;;;8.17;5.97;;;17.20;99.90;;;;;;6338254;22;20409;-93
2022/08/31 07:28:06;;;;;;;5.87;5.27;;;17.20;99.90;;;;;;6341089;22;20421;-94
2022/08/31 07:30:40;;;;;;;6.23;5.60;;;17.20;99.90;;;;;;6340935;22;20481;-94
2022/08/31 07:33:09;;;;;;;6.17;5.43;;;17.20;99.90;;;;;;6344256;22;20414;-95
2022/08/31 07:35:36;;;;;;;5.67;4.60;;;17.20;99.90;;;;;;6343152;22;20421;-95
2022/08/31 07:43:35;;;;;;;8.30;5.30;;;17.20;99.90;;;;;;6338310;22;20433;-93
2022/08/31 07:46:02;;;;;;;6.20;4.60;;;17.30;99.90;;;;;;6333042;22;20417;-93
2022/08/31 07:48:30;;;;;;;4.67;4.27;;;17.30;99.90;;;;;;6336880;22;20417;-93
2022/08/31 08:14:17;;;;;;;4.63;4.20;;;17.30;99.90;;;;;;6302551;22;20449;-94
2022/08/31 08:16:44;;;;;;;4.60;4.20;;;17.30;99.90;;;;;;6375740;22;20396;-95
2022/08/31 08:19:10;;;;;;;5.67;5.10;;;17.30;99.90;;;;;;6375713;22;20405;-92
2022/08/31 08:21:38;;;;;;;5.70;4.83;;;17.30;99.90;;;;;;6360009;22;20460;-93
2022/08/31 08:26:43;;;;;;;5.27;4.63;;;17.30;99.90;;;;;;6336663;22;20424;-92
2022/08/31 08:31:52;;;;;;;4.63;4.20;;;17.40;99.90;;;;;;6361769;22;20433;-94
2022/08/31 08:34:20;;;;;;;4.80;4.30;;;17.50;99.90;;;;;;6370197;22;20432;-93
2022/08/31 08:36:48;;;;;;;9.30;5.70;;;17.50;99.90;;;;;;6352439;22;20439;-93
2022/08/31 08:39:16;;;;;;;5.40;4.80;;;17.50;99.90;;;;;;6355419;22;20504;-92
2022/08/31 08:41:44;;;;;;;6.03;4.63;;;17.50;99.90;;;;;;6373696;22;20429;-95
2022/08/31 08:44:19;;;;;;;5.90;5.30;;;17.60;99.90;;;;;;6366669;22;20520;-94
2022/08/31 08:46:51;;;;;;;8.20;4.93;;;17.60;99.90;;;;;;6368593;22;20413;-91
2022/08/31 08:49:22;;;;;;;5.77;4.40;;;17.60;99.90;;;;;;6366342;22;20482;-92
2022/08/31 08:51:51;;;;;;;4.60;4.20;;;17.60;99.90;;;;;;6349342;22;20557;-93
2022/08/31 08:54:28;;;;;;;5.17;4.30;;;17.70;99.90;;;;;;6362399;22;20397;-92
2022/08/31 08:56:59;;;;;;;6.20;5.00;;;17.70;99.90;;;;;;6360430;22;20413;-92
2022/08/31 08:59:27;;;;;;;5.23;4.73;;;17.70;99.90;;;;;;6356514;22;20408;-91
2022/08/31 09:02:00;;;;;;;5.67;5.17;;;17.80;99.90;;;;;;6351376;22;20444;-94
2022/08/31 09:04:52;;;;;;;5.50;5.00;;;17.80;99.90;;;;;;6354977;22;20447;-91
2022/08/31 09:07:36;;;;;;;6.33;5.43;;;17.80;99.90;;;;;;6356149;22;20413;-91
2022/08/31 09:10:09;;;;;;;5.67;5.00;;;17.90;99.90;;;;;;6355731;22;20408;-91
2022/08/31 09:12:47;;;;;;;4.53;4.13;;;17.90;99.90;;;;;;6355319;22;20436;-91
2022/08/31 09:15:35;;;;;;;6.17;5.37;;;18.00;99.90;;;;;;6357341;22;20401;-92
2022/08/31 09:18:13;;;;;;;5.80;4.60;;;18.00;99.90;;;;;;6374594;22;20393;-93
2022/08/31 09:20:40;;;;;;;5.90;5.33;;;18.00;99.90;;;;;;6365115;22;20440;-91
2022/08/31 09:23:08;;;;;;;6.40;5.20;;;18.10;99.90;;;;;;6367535;22;20417;-92
2022/08/31 09:25:43;;;;;;;5.83;4.87;;;18.00;99.90;;;;;;6363237;22;20420;-93
2022/08/31 09:28:13;;;;;;;5.30;4.67;;;18.10;99.90;;;;;;6355448;22;20412;-92
2022/08/31 09:30:54;;;;;;;5.23;4.70;;;18.00;99.90;;;;;;6359303;22;20432;-92
2022/08/31 09:33:25;;;;;;;5.17;4.67;;;18.10;99.90;;;;;;6365417;22;20474;-92
2022/08/31 09:35:55;;;;;;;5.97;5.17;;;18.00;99.90;;;;;;6369395;22;20419;-93
2022/08/31 09:38:30;;;;;;;5.43;4.80;;;18.10;99.90;;;;;;6354454;22;20444;-93
2022/08/31 09:40:58;;;;;;;5.80;5.07;;;18.10;99.90;;;;;;6365946;22;20467;-92
2022/08/31 09:43:37;;;;;;;6.30;5.70;;;18.10;99.90;;;;;;6367765;22;20408;-93
2022/08/31 09:46:06;;;;;;;5.60;5.10;;;18.20;99.90;;;;;;6366694;22;20421;-92
2022/08/31 09:48:50;;;;;;;5.77;5.07;;;18.20;99.90;;;;;;6357460;22;20439;-92
2022/08/31 09:51:23;;;;;;;5.43;4.90;;;18.30;99.90;;;;;;6356861;22;20436;-92
2022/08/31 09:56:51;;;;;;;10.10;5.67;;;18.40;99.90;;;;;;6370577;22;20389;-93
2022/08/31 09:59:36;;;;;;;7.43;5.10;;;18.40;99.90;;;;;;6371541;22;20440;-92
2022/08/31 10:02:07;;;;;;;6.27;5.23;;;18.40;99.90;;;;;;6372892;22;20421;-93
2022/08/31 10:04:49;;;;;;;7.10;6.17;;;18.50;99.90;;;;;;6370594;22;20441;-94
2022/08/31 10:07:37;;;;;;;6.67;5.97;;;18.40;99.90;;;;;;6372841;22;20405;-92
2022/08/31 10:10:09;;;;;;;7.20;6.23;;;18.40;99.90;;;;;;6362185;22;20433;-92
2022/08/31 10:12:42;;;;;;;6.90;5.90;;;18.30;99.90;;;;;;6373701;22;20475;-93
2022/08/31 10:15:14;;;;;;;6.50;5.90;;;18.30;99.90;;;;;;6373554;22;20389;-93
2022/08/31 10:17:50;;;;;;;7.60;6.37;;;18.20;99.90;;;;;;6373884;22;20405;-94
2022/08/31 10:20:22;;;;;;;6.30;5.80;;;18.20;99.90;;;;;;6373580;22;20412;-92
2022/08/31 10:22:54;;;;;;;10.20;6.30;;;18.20;99.90;;;;;;6372738;22;20496;-94
2022/08/31 10:25:27;;;;;;;7.10;6.40;;;18.20;99.90;;;;;;6374484;22;20429;-95
2022/08/31 10:28:00;;;;;;;6.93;6.20;;;18.10;99.90;;;;;;6374828;22;20421;-92
2022/08/31 10:30:33;;;;;;;8.80;7.47;;;18.10;99.90;;;;;;6375197;22;20469;-93
2022/08/31 10:33:08;;;;;;;7.10;5.90;;;18.10;99.90;;;;;;6375402;22;20409;-93
2022/08/31 10:35:53;;;;;;;6.70;6.03;;;18.10;99.90;;;;;;6373500;22;20412;-92
2022/08/31 10:38:26;;;;;;;7.63;6.67;;;18.10;99.90;;;;;;6375353;22;20424;-92
2022/08/31 10:41:05;;;;;;;7.53;6.33;;;18.10;99.90;;;;;;6375340;22;20427;-93
2022/08/31 10:43:38;;;;;;;8.60;7.03;;;18.10;99.90;;;;;;6372957;22;20606;-93
2022/08/31 10:46:06;;;;;;;9.03;7.37;;;18.10;99.90;;;;;;6374399;22;20416;-93
2022/08/31 10:48:36;;;;;;;7.03;6.33;;;18.20;99.90;;;;;;6373998;22;20492;-93
2022/08/31 10:51:19;;;;;;;6.40;5.80;;;18.20;99.90;;;;;;6374220;22;20416;-94
2022/08/31 10:54:00;;;;;;;6.97;5.40;;;18.20;99.90;;;;;;6373567;22;20415;-93
2022/08/31 10:56:36;;;;;;;8.33;6.43;;;18.30;99.90;;;;;;6374163;22;20389;-94
2022/08/31 11:09:31;;;;;;;6.23;5.63;;;18.30;99.90;;;;;;6349243;22;20436;-94
2022/08/31 11:12:03;;;;;;;6.80;6.20;;;18.30;99.90;;;;;;6375979;22;20427;-94
2022/08/31 11:15:01;;;;;;;7.10;5.73;;;18.30;99.90;;;;;;6375541;22;20443;-94
2022/08/31 11:18:00;;;;;;;;;;;;;;;;;;;;;
2022/08/31 11:20:55;;;;;;;6.03;5.30;;;18.30;99.90;;;;;;6339439;22;20413;-95
2022/08/31 11:23:49;;;;;;;7.00;5.17;;;18.30;99.90;;;;;;6376719;22;20401;-94
2022/08/31 11:26:49;;;;;;;10.30;6.00;;;18.30;99.90;;;;;;6376820;22;20518;-95
2022/08/31 11:39:43;;;;;;;7.03;5.47;;;18.20;99.90;;;;;;6307481;22;20387;-93
2022/08/31 11:42:31;;;;;;;6.13;5.53;;;18.20;99.90;;;;;;6317809;22;20379;-95
2022/08/31 11:45:08;;;;;;;6.73;6.13;;;18.20;99.90;;;;;;6315580;22;20419;-94
2022/08/31 11:47:40;;;;;;;6.93;6.23;;;18.20;99.90;;;;;;6316030;22;20414;-93
2022/08/31 11:50:39;;;;;;;6.40;5.80;;;18.10;99.90;;;;;;6305970;22;20387;-94
2022/08/31 11:53:24;;;;;;;6.83;6.03;;;18.10;99.90;;;;;;6261592;22;20427;-93
2022/08/31 11:55:58;;;;;;;11.00;6.30;;;18.10;99.90;;;;;;6316056;22;20387;-93
2022/08/31 11:58:43;;;;;;;6.83;6.23;;;18.10;99.90;;;;;;6316079;22;20414;-93
2022/08/31 12:01:41;;;;;;;6.53;5.57;;;18.10;99.90;;;;;;6315953;22;20418;-93
2022/08/31 12:04:59;;;;;;;6.73;6.03;;;18.10;99.90;;;;;;6315126;22;20407;-94
2022/08/31 12:07:40;;;;;;;7.20;6.50;;;18.00;99.90;;;;;;6283452;22;20403;-93
2022/08/31 12:10:36;;;;;;;8.77;6.37;;;18.00;99.90;;;;;;6316357;22;20394;-94
2022/08/31 12:13:31;;;;;;;6.33;5.63;;;18.00;99.90;;;;;;6316166;22;20391;-93
2022/08/31 12:16:28;;;;;;;6.67;5.63;;;18.00;99.90;;;;;;6316163;22;20395;-94
2022/08/31 12:25:19;;;;;;;6.70;5.53;;;18.10;99.90;;;;;;6315826;22;20437;-94
2022/08/31 12:28:01;;;;;;;7.27;6.30;;;18.20;99.90;;;;;;6316011;22;20515;-95
2022/08/31 12:30:39;;;;;;;6.80;6.20;;;18.20;99.90;;;;;;6315756;22;20402;-95
2022/08/31 12:33:15;;;;;;;8.33;5.83;;;18.30;99.90;;;;;;6315568;22;20402;-94
2022/08/31 12:35:56;;;;;;;7.23;6.43;;;18.30;99.90;;;;;;6315817;22;20399;-94
2022/08/31 12:38:31;;;;;;;7.30;6.60;;;18.40;99.90;;;;;;6315290;22;20442;-93
2022/08/31 12:41:01;;;;;;;7.13;5.23;;;18.50;99.90;;;;;;6314762;22;20451;-93
2022/08/31 12:43:35;;;;;;;7.00;6.30;;;18.60;99.90;;;;;;6313959;22;20411;-92
2022/08/31 12:46:31;;;;;;;8.80;5.90;;;18.60;99.90;;;;;;6314004;22;20458;-92
2022/08/31 12:49:29;;;;;;;6.57;5.87;;;18.60;99.90;;;;;;6315799;22;20411;-93
2022/08/31 12:52:03;;;;;;;7.90;5.90;;;18.70;99.90;;;;;;6308129;22;20486;-92
2022/08/31 12:55:00;;;;;;;6.43;5.83;;;18.70;99.90;;;;;;6299415;22;20431;-92
2022/08/31 12:57:37;;;;;;;7.40;5.70;;;18.80;99.90;;;;;;6312058;22;20403;-93
2022/08/31 13:00:14;;;;;;;8.00;5.97;;;18.80;99.90;;;;;;6315466;22;20417;-92
2022/08/31 13:02:44;;;;;;;6.30;5.70;;;18.90;99.90;;;;;;6309548;22;20470;-92
2022/08/31 13:05:20;;;;;;;6.90;6.00;;;18.90;99.90;;;;;;6308382;22;20442;-92
2022/08/31 13:07:47;;;;;;;7.80;6.40;;;19.00;99.90;;;;;;6309232;22;20409;-92
2022/08/31 13:10:26;;;;;;;6.57;5.87;;;19.00;99.90;;;;;;6298892;22;20474;-92
2022/08/31 13:12:56;;;;;;;6.27;5.70;;;19.10;99.90;;;;;;6340707;22;20436;-94
2022/08/31 13:15:26;;;;;;;7.17;6.40;;;19.20;99.90;;;;;;6377230;22;20416;-94
2022/08/31 13:17:53;;;;;;;8.30;6.93;;;19.40;99.90;;;;;;6377693;22;20429;-94
2022/08/31 13:20:39;;;;;;;6.03;5.47;;;19.40;99.90;;;;;;6377689;22;20451;-95
2022/08/31 13:23:10;;;;;;;7.60;7.00;;;19.50;99.90;;;;;;6375848;22;20433;-93
2022/08/31 13:25:38;;;;;;;7.43;6.20;;;19.50;99.90;;;;;;6377068;22;20425;-94
2022/08/31 13:28:09;;;;;;;6.20;5.60;;;19.50;99.90;;;;;;6377405;22;20413;-93
2022/08/31 13:30:38;;;;;;;6.40;5.50;;;19.50;99.90;;;;;;6376823;22;20397;-95
2022/08/31 13:33:23;;;;;;;7.13;5.77;;;19.50;99.90;;;;;;6372598;22;20508;-92
2022/08/31 13:35:56;;;;;;;6.17;5.50;;;19.40;99.90;;;;;;6371501;22;20417;-94
2022/08/31 13:38:39;;;;;;;6.73;5.57;;;19.40;99.90;;;;;;6373385;22;20405;-94
2022/08/31 13:41:09;;;;;;;9.00;6.27;;;19.50;99.90;;;;;;6377369;22;20407;-94
2022/08/31 13:43:36;;;;;;;6.67;5.90;;;19.60;99.90;;;;;;6375749;22;20422;-93
2022/08/31 13:46:03;;;;;;;6.47;5.50;;;19.70;99.90;;;;;;6375242;22;20451;-93
2022/08/31 13:48:33;;;;;;;7.00;5.40;;;19.80;99.90;;;;;;6377503;22;20397;-94
2022/08/31 13:51:10;;;;;;;6.13;4.77;;;19.80;99.90;;;;;;6362660;22;20458;-94
2022/08/31 13:53:40;;;;;;;6.47;5.27;;;19.90;99.90;;;;;;6377206;22;20487;-94
2022/08/31 13:59:25;;;;;;;6.73;5.70;;;20.00;99.90;;;;;;6375412;22;20408;-92
2022/08/31 14:01:55;;;;;;;8.40;6.00;;;20.30;99.90;;;;;;6376561;22;20458;-94
2022/08/31 14:04:42;;;;;;;5.37;4.80;;;20.50;99.90;;;;;;6374494;22;20480;-92
2022/08/31 14:07:18;;;;;;;7.50;4.93;;;20.70;99.90;;;;;;6376155;22;20424;-93
2022/08/31 14:09:47;;;;;;;6.27;5.67;;;20.80;99.90;;;;;;6377200;22;20409;-93
2022/08/31 14:12:33;;;;;;;5.47;4.97;;;20.80;99.90;;;;;;6377098;22;20418;-93
2022/08/31 14:15:08;;;;;;;6.70;5.50;;;20.80;99.90;;;;;;6377112;22;20424;-93
2022/08/31 14:17:39;;;;;;;7.90;5.10;;;20.70;99.90;;;;;;6377275;22;20409;-94
2022/08/31 14:20:32;;;;;;;6.63;5.00;;;20.60;99.90;;;;;;6377221;22;20420;-93
2022/08/31 14:23:26;;;;;;;6.53;5.17;;;20.60;99.90;;;;;;6371426;22;20422;-93
2022/08/31 14:25:55;;;;;;;6.37;5.47;;;20.90;99.90;;;;;;6372927;22;20429;-95
2022/08/31 14:28:39;;;;;;;5.70;5.10;;;21.10;99.90;;;;;;6374698;22;20430;-94
2022/08/31 22:28:26;;;;;;;7.60;6.90;;;15.10;99.90;;;;;;6352318;22;20435;-95
2022/08/31 22:30:53;;;;;;;9.93;8.13;;;15.00;99.90;;;;;;6377107;22;20393;-96
2022/08/31 22:33:20;;;;;;;8.60;7.60;;;15.00;99.90;;;;;;6366647;22;20385;-95
2022/08/31 22:35:47;;;;;;;8.47;7.57;;;15.00;99.90;;;;;;6376734;22;20393;-94
2022/08/31 22:38:17;;;;;;;9.93;8.03;;;15.00;99.90;;;;;;6376976;22;20480;-94
2022/08/31 22:40:47;;;;;;;9.73;8.73;;;15.00;99.90;;;;;;6376417;22;20385;-95
2022/08/31 22:43:14;;;;;;;8.87;8.07;;;15.00;99.90;;;;;;6375987;22;20386;-95
2022/08/31 22:45:43;;;;;;;10.00;8.57;;;14.90;99.90;;;;;;6366211;22;20429;-96
2022/08/31 22:48:10;;;;;;;9.37;8.47;;;14.90;99.90;;;;;;6377186;22;20405;-95
2022/08/31 22:50:37;;;;;;;9.07;7.83;;;14.90;99.90;;;;;;6377173;22;20390;-95
2022/08/31 22:53:05;;;;;;;8.80;7.70;;;14.90;99.90;;;;;;6377359;22;20394;-95
2022/08/31 22:55:35;;;;;;;8.50;7.57;;;14.80;99.90;;;;;;6377288;22;20397;-94
2022/08/31 22:58:02;;;;;;;7.53;6.83;;;14.80;99.90;;;;;;6377329;22;20743;-95
2022/08/31 23:00:29;;;;;;;9.90;8.80;;;14.80;99.90;;;;;;6366850;22;20473;-94
2022/08/31 23:02:57;;;;;;;10.30;9.00;;;14.80;99.90;;;;;;6376967;22;20473;-95
2022/08/31 23:05:24;;;;;;;10.17;9.07;;;14.80;99.90;;;;;;6376639;22;20409;-94
2022/08/31 23:07:52;;;;;;;8.90;8.00;;;14.70;99.90;;;;;;6376893;22;20447;-94
2022/08/31 23:10:20;;;;;;;10.90;8.23;;;14.70;99.90;;;;;;6377031;22;20803;-94
2022/08/31 23:12:50;;;;;;;8.90;8.00;;;14.70;99.90;;;;;;6376896;22;20390;-94
2022/08/31 23:15:17;;;;;;;9.43;8.20;;;14.60;99.90;;;;;;6376737;22;20393;-95
2022/08/31 23:17:53;;;;;;;10.83;6.97;;;14.60;99.90;;;;;;6376791;22;20409;-94
2022/08/31 23:20:23;;;;;;;10.33;8.50;;;14.60;99.90;;;;;;6376872;22;20396;-95
2022/08/31 23:22:51;;;;;;;8.53;7.60;;;14.60;99.90;;;;;;6376530;22;20644;-95
2022/08/31 23:25:21;;;;;;;8.70;7.63;;;14.60;99.90;;;;;;6378655;22;20476;-94
2022/08/31 23:27:49;;;;;;;12.03;7.70;;;14.50;99.90;;;;;;6378962;22;20413;-94
2022/08/31 23:30:19;;;;;;;9.87;8.33;;;14.50;99.90;;;;;;6379105;22;20393;-95
2022/08/31 23:32:46;;;;;;;8.33;7.53;;;14.50;99.90;;;;;;6368533;22;20413;-94
2022/08/31 23:35:14;;;;;;;8.30;7.00;;;14.50;99.90;;;;;;6378959;22;20393;-95
2022/08/31 23:37:42;;;;;;;8.30;6.70;;;14.50;99.90;;;;;;6368437;22;20428;-95
2022/08/31 23:40:11;;;;;;;9.50;8.50;;;14.50;99.90;;;;;;6378976;22;20404;-95
2022/08/31 23:42:39;;;;;;;9.20;8.13;;;14.40;99.90;;;;;;6378745;22;20390;-94
2022/08/31 23:45:08;;;;;;;8.50;7.70;;;14.40;99.90;;;;;;6378670;22;20397;-95
2022/08/31 23:47:36;;;;;;;9.27;8.30;;;14.40;99.90;;;;;;6378779;22;20593;-95
2022/08/31 23:50:06;;;;;;;9.13;7.93;;;14.40;99.90;;;;;;6378870;22;20405;-93
2022/08/31 23:52:40;;;;;;;9.27;8.37;;;14.30;99.90;;;;;;6378675;22;20404;-96
2022/08/31 23:55:10;;;;;;;10.17;9.07;;;14.40;99.90;;;;;;6378622;22;20477;-95
2022/08/31 23:57:38;;;;;;;9.33;8.33;;;14.30;99.90;;;;;;6378694;22;20431;-95
